Time;durP1;ratioP1;P1;durP2;ratioP2;P2;SDS_P1;SDS_P2;PMS_P1;PMS_P2;Temp;Humidity;BMP_temperature;BMP_pressure;BME280_temperature;BME280_humidity;BME280_pressure;Samples;Min_cycle;Max_cycle;Signal;HPM_P1;HPM_P2
2022/06/16 00:01:45;;;;;;;7.55;3.28;;;;;;;24.41;42.39;100457.69;5023039;28;20210;-64
2022/06/16 00:04:14;;;;;;;5.35;3.25;;;;;;;24.38;42.48;100450.84;5025901;28;20213;-63
2022/06/16 00:06:43;;;;;;;5.28;3.13;;;;;;;24.34;42.69;100452.41;5021454;28;20317;-64
2022/06/16 00:09:12;;;;;;;7.20;3.50;;;;;;;24.31;42.60;100455.56;5018354;28;20773;-64
2022/06/16 00:11:40;;;;;;;10.25;3.80;;;;;;;24.31;42.54;100455.56;5018804;28;20599;-64
2022/06/16 00:14:10;;;;;;;6.80;3.70;;;;;;;24.31;42.48;100444.72;5027666;28;20689;-65
2022/06/16 00:16:38;;;;;;;5.30;3.28;;;;;;;24.30;42.79;100451.22;5024718;28;20208;-65
2022/06/16 00:19:06;;;;;;;6.15;3.60;;;;;;;24.29;42.84;100446.03;5021420;28;20561;-64
2022/06/16 00:21:33;;;;;;;6.45;3.80;;;;;;;24.26;42.89;100441.94;5026779;28;20204;-64
2022/06/16 00:24:01;;;;;;;13.18;3.72;;;;;;;24.25;43.14;100445.69;5022005;28;20213;-65
2022/06/16 00:26:30;;;;;;;6.28;3.78;;;;;;;24.25;43.05;100443.00;5021905;28;20660;-63
2022/06/16 00:28:59;;;;;;;6.88;3.45;;;;;;;24.23;43.15;100430.72;5025543;28;20239;-63
2022/06/16 00:31:28;;;;;;;6.45;3.80;;;;;;;24.21;43.21;100440.97;5021651;28;20236;-65
2022/06/16 00:33:56;;;;;;;6.30;3.50;;;;;;;24.16;43.33;100436.25;5024573;28;20287;-63
2022/06/16 00:36:24;;;;;;;6.68;3.10;;;;;;;24.15;43.47;100428.34;5025144;28;20209;-64
2022/06/16 00:38:52;;;;;;;6.25;3.30;;;;;;;24.12;43.60;100432.34;5027492;28;20652;-65
2022/06/16 00:41:20;;;;;;;6.25;3.00;;;;;;;24.12;43.46;100435.06;5020169;28;20219;-64
2022/06/16 00:43:49;;;;;;;7.18;3.75;;;;;;;24.09;43.31;100424.72;5023224;28;20213;-64
2022/06/16 00:46:19;;;;;;;9.48;3.28;;;;;;;24.08;43.57;100428.50;5021926;28;20627;-65
2022/06/16 00:48:50;;;;;;;6.25;3.30;;;;;;;24.05;43.45;100418.13;5024332;28;20319;-64
2022/06/16 00:51:21;;;;;;;7.68;3.10;;;;;;;24.03;43.56;100414.81;5025724;28;20219;-64
2022/06/16 00:53:51;;;;;;;5.43;3.33;;;;;;;24.00;43.73;100410.72;5022860;28;20287;-63
2022/06/16 00:56:21;;;;;;;8.38;3.20;;;;;;;23.99;43.55;100419.91;5025521;28;20579;-64
2022/06/16 00:58:54;;;;;;;6.20;3.50;;;;;;;23.95;43.47;100416.00;5022066;28;20586;-64
2022/06/16 01:01:23;;;;;;;6.32;3.65;;;;;;;23.92;43.57;100415.69;5024343;28;20215;-64
2022/06/16 01:06:38;;;;;;;8.68;3.13;;;;;;;23.87;43.77;100402.84;5021404;28;20298;-64
2022/06/16 01:09:10;;;;;;;7.78;3.38;;;;;;;23.88;43.71;100400.94;5020664;28;20216;-63
2022/06/16 01:14:58;;;;;;;7.70;3.10;;;;;;;23.83;43.71;100408.97;5024354;28;20222;-64
2022/06/16 01:17:35;;;;;;;8.55;3.65;;;;;;;23.81;43.99;100411.91;5022677;28;20217;-64
2022/06/16 01:20:19;;;;;;;10.07;3.40;;;;;;;23.81;43.82;100416.50;5018619;28;20303;-64
2022/06/16 01:23:26;;;;;;;11.00;3.80;;;;;;;23.78;43.87;100411.53;5019516;28;20588;-64
2022/06/16 01:26:09;;;;;;;6.88;3.33;;;;;;;23.74;44.39;100413.91;5003118;28;20209;-65
2022/06/16 01:28:57;;;;;;;5.95;3.50;;;;;;;23.71;44.14;100416.25;5020159;28;20264;-64
2022/06/16 01:31:31;;;;;;;5.20;3.30;;;;;;;23.70;43.98;100415.44;5019146;28;20257;-65
2022/06/16 01:34:07;;;;;;;10.07;3.53;;;;;;;23.71;44.17;100408.13;5018501;28;20596;-64
2022/06/16 01:36:39;;;;;;;6.60;3.40;;;;;;;23.67;44.38;100409.66;5018994;28;20223;-64
2022/06/16 01:39:11;;;;;;;5.38;3.38;;;;;;;23.66;44.40;100408.03;5019403;28;20707;-63
2022/06/16 01:41:46;;;;;;;4.78;3.25;;;;;;;23.63;44.37;100404.72;5021299;28;20215;-64
2022/06/16 01:44:22;;;;;;;6.88;3.08;;;;;;;23.61;44.49;100414.13;5021459;28;20683;-65
2022/06/16 01:46:56;;;;;;;7.73;3.37;;;;;;;23.56;44.26;100414.84;5016518;28;20207;-63
2022/06/16 01:49:27;;;;;;;6.43;3.00;;;;;;;23.54;44.29;100410.72;5020349;28;20565;-64
2022/06/16 01:52:01;;;;;;;7.82;3.17;;;;;;;23.54;44.42;100410.72;5024339;28;20666;-64
2022/06/16 01:54:34;;;;;;;9.10;3.33;;;;;;;23.54;44.38;100421.56;5019028;28;20240;-64
2022/06/16 01:57:10;;;;;;;7.43;3.20;;;;;;;23.53;44.46;100422.59;5022294;28;20650;-63
2022/06/16 01:59:45;;;;;;;6.78;3.13;;;;;;;23.51;44.59;100420.13;5024235;28;20216;-64
2022/06/16 02:02:16;;;;;;;8.02;3.47;;;;;;;23.47;44.56;100418.94;5022064;28;20254;-64
2022/06/16 02:04:49;;;;;;;7.05;2.80;;;;;;;23.46;44.66;100425.41;5022489;28;20223;-63
2022/06/16 02:07:22;;;;;;;5.73;2.87;;;;;;;23.45;44.56;100426.47;5016977;28;20296;-64
2022/06/16 02:09:55;;;;;;;5.30;3.08;;;;;;;23.43;44.71;100428.56;5018812;28;20287;-63
2022/06/16 02:15:19;;;;;;;5.03;3.37;;;;;;;23.36;45.03;100441.38;5009439;28;20236;-64
2022/06/16 02:17:47;;;;;;;6.15;3.42;;;;;;;23.33;45.13;100436.41;5018086;28;20303;-64
2022/06/16 02:20:15;;;;;;;6.90;3.33;;;;;;;23.31;44.83;100435.03;5019973;28;20240;-64
2022/06/16 02:22:44;;;;;;;6.82;3.10;;;;;;;23.29;45.24;100440.66;5018982;28;20232;-64
2022/06/16 02:25:12;;;;;;;5.32;3.15;;;;;;;23.28;45.26;100447.13;5020465;28;20211;-63
2022/06/16 02:27:40;;;;;;;6.30;3.57;;;;;;;23.25;44.92;100443.00;5017150;28;20228;-64
2022/06/16 02:30:09;;;;;;;7.17;3.37;;;;;;;23.24;45.03;100437.81;5019073;28;20229;-63
2022/06/16 02:32:47;;;;;;;6.55;3.53;;;;;;;23.23;45.08;100441.56;5018961;28;20221;-63
2022/06/16 02:35:26;;;;;;;7.15;3.00;;;;;;;23.20;45.04;100445.59;5020634;28;20219;-63
2022/06/16 02:38:07;;;;;;;7.83;3.97;;;;;;;23.19;45.42;100445.81;5022022;28;20216;-63
2022/06/16 02:40:50;;;;;;;7.17;3.17;;;;;;;23.17;45.39;100442.50;5020699;28;20232;-64
2022/06/16 02:43:33;;;;;;;5.63;2.90;;;;;;;23.16;45.37;100451.66;5020980;28;20208;-64
2022/06/16 02:46:05;;;;;;;6.70;3.30;;;;;;;23.10;45.70;100447.19;5019863;28;20311;-63
2022/06/16 02:48:41;;;;;;;9.27;3.07;;;;;;;23.09;45.59;100449.06;5019218;28;20255;-64
2022/06/16 02:51:13;;;;;;;8.90;3.30;;;;;;;23.09;45.50;100448.25;5017966;28;20299;-63
2022/06/16 02:53:49;;;;;;;7.73;3.53;;;;;;;23.08;45.67;100443.88;5017852;28;20245;-63
2022/06/16 02:56:25;;;;;;;5.67;2.97;;;;;;;23.05;45.83;100438.94;5018825;28;20212;-64
2022/06/16 02:58:56;;;;;;;6.37;3.30;;;;;;;23.02;45.78;100442.13;5017616;28;20580;-64
2022/06/16 03:01:25;;;;;;;7.82;3.70;;;;;;;23.00;45.90;100446.91;5021148;28;20211;-63
2022/06/16 03:04:06;;;;;;;7.47;3.43;;;;;;;23.02;45.79;100456.47;5019949;28;20215;-63
2022/06/16 03:06:34;;;;;;;8.77;3.70;;;;;;;22.99;45.94;100450.69;5021741;28;20296;-64
2022/06/16 03:09:04;;;;;;;4.07;3.40;;;;;;;22.97;45.72;100453.59;5019540;28;20212;-64
2022/06/16 03:11:33;;;;;;;13.57;3.65;;;;;;;22.95;46.10;100453.03;5018184;28;20571;-64
2022/06/16 03:14:01;;;;;;;6.32;3.53;;;;;;;22.95;46.04;100460.31;5019237;28;20213;-64
2022/06/16 03:16:29;;;;;;;10.13;3.60;;;;;;;22.88;46.18;100450.41;5020037;28;20213;-64
2022/06/16 03:18:57;;;;;;;9.13;3.53;;;;;;;22.86;46.46;100457.09;5017695;28;20716;-64
2022/06/16 03:21:26;;;;;;;5.67;3.40;;;;;;;22.82;46.61;100456.72;5020296;28;20209;-64
2022/06/16 03:23:54;;;;;;;7.53;3.33;;;;;;;22.81;46.38;100457.78;5018126;28;20574;-64
2022/06/16 03:26:22;;;;;;;6.73;3.20;;;;;;;22.79;46.66;100453.66;5016740;28;20740;-64
2022/06/16 03:28:50;;;;;;;7.80;3.47;;;;;;;22.77;46.75;100453.91;5016326;28;20241;-64
2022/06/16 03:31:18;;;;;;;7.23;3.23;;;;;;;22.74;47.02;100458.91;5021424;28;20307;-64
2022/06/16 03:33:48;;;;;;;7.43;3.45;;;;;;;22.73;46.75;100460.75;5014663;28;20300;-64
2022/06/16 03:36:19;;;;;;;5.33;3.33;;;;;;;22.67;47.26;100468.97;5018092;28;20288;-63
2022/06/16 03:38:48;;;;;;;5.27;3.50;;;;;;;22.64;47.19;100475.66;5015451;28;20654;-64
2022/06/16 03:41:16;;;;;;;5.23;3.43;;;;;;;22.59;47.53;100480.91;5019714;28;20319;-64
2022/06/16 03:43:44;;;;;;;9.23;3.70;;;;;;;22.58;47.61;100481.97;5020407;28;20209;-64
2022/06/16 03:46:12;;;;;;;14.37;4.27;;;;;;;22.57;47.72;100483.00;5016874;28;20656;-63
2022/06/16 03:48:43;;;;;;;9.80;4.40;;;;;;;22.48;48.11;100481.66;5018719;28;20208;-64
2022/06/16 03:51:18;;;;;;;6.83;3.83;;;;;;;22.46;48.12;100478.34;5017325;28;20300;-64
2022/06/16 03:53:51;;;;;;;8.63;3.87;;;;;;;22.45;48.09;100479.41;5018399;28;20278;-63
2022/06/16 03:56:20;;;;;;;10.73;3.83;;;;;;;22.41;47.83;100480.91;5019607;28;20212;-65
2022/06/16 03:58:58;;;;;;;10.20;4.17;;;;;;;22.36;48.31;100484.28;5016009;28;20313;-65
2022/06/16 04:01:29;;;;;;;6.23;3.53;;;;;;;22.34;48.57;100488.28;5019136;28;20312;-64
2022/06/16 04:04:00;;;;;;;8.47;3.73;;;;;;;22.32;48.51;100493.06;5022448;28;20835;-65
2022/06/16 04:06:29;;;;;;;8.77;4.40;;;;;;;22.31;48.53;100496.81;5020492;28;20218;-65
2022/06/16 04:08:59;;;;;;;7.87;4.50;;;;;;;22.30;48.49;100492.47;5022903;28;20292;-64
2022/06/16 04:11:30;;;;;;;11.80;4.07;;;;;;;22.28;48.82;100491.84;5024738;28;20651;-65
2022/06/16 04:14:02;;;;;;;7.77;3.80;;;;;;;22.25;48.86;100497.72;5019947;28;20204;-64
2022/06/16 04:16:32;;;;;;;8.70;3.83;;;;;;;22.24;48.70;100504.16;5024405;28;20212;-65
2022/06/16 04:19:01;;;;;;;7.47;4.20;;;;;;;22.21;48.83;100501.91;5021511;28;20208;-64
2022/06/16 04:21:30;;;;;;;6.20;3.73;;;;;;;22.21;49.21;100508.13;5024165;28;20236;-64
2022/06/16 04:23:59;;;;;;;6.33;3.80;;;;;;;22.18;49.16;100503.16;5023230;28;20205;-64
2022/06/16 04:26:27;;;;;;;6.13;3.40;;;;;;;22.16;49.35;100507.16;5023476;28;20205;-65
2022/06/16 04:28:55;;;;;;;6.00;3.87;;;;;;;22.14;49.26;100505.50;5019583;28;20213;-64
2022/06/16 04:31:22;;;;;;;7.57;3.70;;;;;;;22.12;49.56;100515.69;5023932;28;20228;-64
2022/06/16 04:33:50;;;;;;;5.67;3.80;;;;;;;22.16;49.38;100516.09;5021799;28;20211;-63
2022/06/16 04:36:18;;;;;;;9.43;4.40;;;;;;;22.18;49.60;100524.78;5024323;28;20208;-63
2022/06/16 04:38:49;;;;;;;8.20;3.70;;;;;;;22.19;49.24;100523.72;5016120;28;20224;-63
2022/06/16 04:41:22;;;;;;;6.00;3.50;;;;;;;22.22;49.46;100514.38;5022512;28;20228;-63
2022/06/16 04:43:49;;;;;;;8.83;4.20;;;;;;;22.19;49.18;100523.72;5020175;28;20312;-65
2022/06/16 04:46:20;;;;;;;12.97;3.93;;;;;;;22.18;49.51;100518.53;5023943;28;20248;-63
2022/06/16 04:48:51;;;;;;;9.60;3.97;;;;;;;22.19;49.60;100522.91;5020353;28;20691;-64
2022/06/16 04:51:19;;;;;;;5.60;3.70;;;;;;;22.19;49.88;100520.19;5019968;28;20245;-64
2022/06/16 04:53:46;;;;;;;7.07;3.40;;;;;;;22.21;49.97;100524.34;5022752;28;20239;-64
2022/06/16 04:56:14;;;;;;;7.63;3.47;;;;;;;22.26;49.59;100526.34;5019152;28;20216;-64
2022/06/16 04:58:45;;;;;;;7.33;3.67;;;;;;;22.29;49.86;100520.53;5020033;28;20206;-64
2022/06/16 05:01:14;;;;;;;6.57;3.37;;;;;;;22.31;49.40;100526.53;5021936;28;20334;-64
2022/06/16 05:03:48;;;;;;;4.93;3.40;;;;;;;22.34;49.35;100536.91;5019642;28;20662;-64
2022/06/16 05:06:17;;;;;;;9.20;3.83;;;;;;;22.33;49.78;100535.25;5022846;28;20240;-63
2022/06/16 05:08:45;;;;;;;7.50;3.77;;;;;;;22.31;49.33;100545.44;5020382;28;20213;-64
2022/06/16 05:11:13;;;;;;;7.23;4.07;;;;;;;22.30;50.00;100551.88;5019578;28;20264;-62
2022/06/16 05:13:40;;;;;;;9.97;3.80;;;;;;;22.32;50.12;100564.13;5019675;28;20657;-63
2022/06/16 05:16:10;;;;;;;9.30;3.57;;;;;;;22.34;49.85;100570.13;5019548;28;20573;-64
2022/06/16 05:18:37;;;;;;;11.73;3.77;;;;;;;22.35;49.98;100579.88;5018275;28;20797;-63
2022/06/16 05:21:10;;;;;;;7.37;3.60;;;;;;;22.36;49.70;100578.00;5023087;28;20276;-64
2022/06/16 05:23:42;;;;;;;6.80;3.37;;;;;;;22.40;49.94;100571.13;5018820;28;20267;-65
2022/06/16 05:26:10;;;;;;;6.73;3.30;;;;;;;22.43;49.62;100578.75;5021416;28;20205;-63
2022/06/16 05:28:40;;;;;;;4.97;3.33;;;;;;;22.39;50.31;100572.16;5020967;28;20590;-64
2022/06/16 05:31:10;;;;;;;5.80;3.60;;;;;;;22.38;50.20;100584.00;5020170;28;20228;-64
2022/06/16 05:33:39;;;;;;;7.20;3.90;;;;;;;22.39;50.48;100593.78;5014493;28;20578;-66
2022/06/16 05:36:09;;;;;;;5.63;3.30;;;;;;;22.41;50.70;100599.78;5022437;28;20248;-63
2022/06/16 05:38:37;;;;;;;6.10;3.13;;;;;;;22.43;50.84;100603.06;5020213;28;20303;-64
2022/06/16 05:41:13;;;;;;;8.20;4.07;;;;;;;22.47;51.00;100596.19;5019147;28;20237;-64
2022/06/16 05:43:41;;;;;;;8.53;3.50;;;;;;;22.49;51.28;100596.81;5019190;28;20244;-65
2022/06/16 05:46:15;;;;;;;8.67;3.60;;;;;;;22.60;50.86;100598.78;5022660;28;20299;-64
2022/06/16 05:48:45;;;;;;;6.77;3.80;;;;;;;22.68;50.99;100595.78;5019953;28;20629;-64
2022/06/16 05:51:16;;;;;;;11.70;4.00;;;;;;;22.76;50.50;100606.31;5023038;28;20205;-63
2022/06/16 05:53:45;;;;;;;6.10;3.67;;;;;;;22.80;50.58;100610.22;5019118;28;20260;-65
2022/06/16 05:56:13;;;;;;;7.93;3.57;;;;;;;22.84;50.82;100614.13;5022618;28;20219;-64
2022/06/16 05:58:42;;;;;;;5.97;3.07;;;;;;;22.89;50.53;100614.28;5022438;28;20283;-65
2022/06/16 06:01:11;;;;;;;7.60;3.53;;;;;;;22.93;50.48;100625.47;5016877;28;20248;-64
2022/06/16 06:03:39;;;;;;;8.23;3.30;;;;;;;22.99;49.92;100629.16;5020072;28;20219;-64
2022/06/16 06:06:09;;;;;;;9.83;3.63;;;;;;;22.97;49.86;100621.25;5020112;28;20255;-64
2022/06/16 06:17:11;;;;;;;10.87;3.33;;;;;;;23.13;50.62;100633.38;5020265;28;20741;-64
2022/06/16 06:19:39;;;;;;;9.77;3.87;;;;;;;23.18;50.57;100641.63;5016173;28;20647;-64
2022/06/16 06:22:13;;;;;;;6.73;3.47;;;;;;;23.25;49.19;100645.06;5019198;28;20251;-64
2022/06/16 06:24:44;;;;;;;10.00;3.87;;;;;;;23.31;48.71;100648.75;5017926;28;20212;-64
2022/06/16 06:27:16;;;;;;;6.73;3.03;;;;;;;23.31;48.37;100649.56;5022312;28;20215;-64
2022/06/16 06:29:45;;;;;;;7.70;3.47;;;;;;;23.38;48.45;100655.75;5016461;28;20237;-64
2022/06/16 06:32:14;;;;;;;6.63;3.60;;;;;;;23.45;48.07;100656.47;5021844;28;20288;-64
2022/06/16 06:34:46;;;;;;;10.05;3.00;;;;;;;23.54;47.64;100665.13;5019814;28;20212;-64
2022/06/16 06:37:17;;;;;;;7.53;3.53;;;;;;;23.65;47.23;100663.53;5018215;28;20297;-64
2022/06/16 06:39:45;;;;;;;8.85;3.38;;;;;;;23.69;47.15;100667.44;5023932;28;20327;-64
2022/06/16 06:42:14;;;;;;;8.53;3.43;;;;;;;23.72;46.87;100661.56;5022148;28;20255;-65
2022/06/16 06:44:43;;;;;;;16.77;4.13;;;;;;;23.71;47.46;100670.75;5018169;28;20212;-64
2022/06/16 06:47:18;;;;;;;5.65;3.30;;;;;;;23.74;46.78;100671.13;5019717;28;20213;-63
2022/06/16 06:49:46;;;;;;;6.63;2.85;;;;;;;23.83;46.42;100669.75;5020030;28;20231;-64
2022/06/16 06:52:16;;;;;;;7.72;3.20;;;;;;;23.88;46.37;100672.56;5017647;28;20235;-63
2022/06/16 06:54:46;;;;;;;5.50;3.58;;;;;;;23.90;46.25;100669.66;5016865;28;20287;-64
2022/06/16 06:57:18;;;;;;;7.88;2.95;;;;;;;23.88;46.18;100677.16;5017044;28;20299;-64
2022/06/16 06:59:45;;;;;;;8.10;3.05;;;;;;;23.87;46.18;100687.16;5017700;28;20787;-64
2022/06/16 07:02:15;;;;;;;5.68;3.08;;;;;;;23.87;46.30;100683.63;5018696;28;20792;-63
2022/06/16 07:04:44;;;;;;;6.70;2.95;;;;;;;23.88;46.59;100696.13;5015009;28;20216;-64
2022/06/16 07:07:17;;;;;;;7.30;3.20;;;;;;;23.87;46.81;100698.00;5020277;28;20650;-63
2022/06/16 07:09:45;;;;;;;8.07;3.28;;;;;;;23.89;46.73;100700.47;5018921;28;20686;-64
2022/06/16 07:12:14;;;;;;;4.85;3.08;;;;;;;23.89;46.77;100700.47;5019379;28;20291;-65
2022/06/16 07:14:46;;;;;;;7.65;3.08;;;;;;;23.92;46.44;100700.03;5018724;28;20213;-64
2022/06/16 07:17:15;;;;;;;4.95;2.97;;;;;;;23.93;46.51;100707.06;5018789;28;20299;-64
2022/06/16 07:19:43;;;;;;;4.70;2.92;;;;;;;23.99;46.45;100700.75;5018242;28;20217;-63
2022/06/16 07:22:11;;;;;;;7.07;3.28;;;;;;;24.07;46.17;100708.56;5017732;28;20240;-63
2022/06/16 07:24:41;;;;;;;6.95;2.65;;;;;;;24.17;45.86;100708.81;5019675;28;20263;-64
2022/06/16 07:27:10;;;;;;;7.25;2.88;;;;;;;24.25;45.13;100710.41;5019690;28;20236;-63
2022/06/16 07:29:38;;;;;;;10.00;3.30;;;;;;;24.35;44.65;100710.66;5016806;28;20224;-65
2022/06/16 07:32:13;;;;;;;5.18;2.80;;;;;;;24.41;44.65;100712.44;5019138;28;20201;-63
2022/06/16 07:34:44;;;;;;;5.43;3.00;;;;;;;24.43;44.52;100712.22;5018057;28;20340;-62
2022/06/16 07:37:12;;;;;;;4.10;2.30;;;;;;;24.47;44.59;100713.38;5022936;28;20308;-63
2022/06/16 07:39:41;;;;;;;6.97;2.75;;;;;;;24.53;44.66;100704.34;5024602;28;20223;-63
2022/06/16 07:42:09;;;;;;;5.03;2.75;;;;;;;24.58;44.80;100705.28;5021562;28;20236;-64
2022/06/16 07:44:39;;;;;;;6.60;3.05;;;;;;;24.59;44.90;100701.50;5021630;28;20244;-62
2022/06/16 07:47:07;;;;;;;4.55;2.70;;;;;;;24.65;44.30;100707.88;5022583;28;20287;-63
2022/06/16 07:49:35;;;;;;;7.32;3.00;;;;;;;24.70;43.61;100716.97;5020832;28;20275;-64
2022/06/16 07:52:04;;;;;;;5.60;2.78;;;;;;;24.79;43.53;100708.47;5022093;28;20201;-63
2022/06/16 07:54:32;;;;;;;18.35;2.90;;;;;;;24.84;43.12;100704.00;5023817;28;20240;-63
2022/06/16 07:57:21;;;;;;;4.78;2.63;;;;;;;24.82;42.79;100708.81;5023985;28;20216;-63
2022/06/16 07:59:57;;;;;;;7.85;2.78;;;;;;;24.82;43.14;100716.94;5020889;28;20295;-64
2022/06/16 08:02:26;;;;;;;7.53;2.83;;;;;;;24.93;42.94;100716.16;5022183;28;20328;-63
2022/06/16 08:04:54;;;;;;;7.32;2.72;;;;;;;24.96;43.23;100718.41;5022506;28;20305;-64
2022/06/16 08:07:23;;;;;;;6.47;2.70;;;;;;;25.01;43.30;100723.94;5022196;28;20304;-64
2022/06/16 08:09:54;;;;;;;7.47;3.20;;;;;;;25.04;43.39;100717.22;5022789;28;20248;-64
2022/06/16 08:12:24;;;;;;;4.30;2.70;;;;;;;25.11;43.14;100720.63;5020552;28;20689;-64
2022/06/16 08:14:52;;;;;;;5.95;2.70;;;;;;;25.14;42.81;100724.78;5022301;28;20212;-63
2022/06/16 08:17:25;;;;;;;5.78;2.70;;;;;;;25.23;42.23;100723.34;5023470;28;20293;-63
2022/06/16 08:19:54;;;;;;;4.90;2.80;;;;;;;25.28;42.23;100724.28;5019242;28;20304;-63
2022/06/16 08:22:22;;;;;;;6.28;2.80;;;;;;;25.34;41.91;100726.03;5020122;28;20326;-63
2022/06/16 08:24:49;;;;;;;8.40;3.05;;;;;;;25.37;42.02;100730.16;5019243;28;20210;-64
2022/06/16 08:27:20;;;;;;;6.88;2.83;;;;;;;25.42;41.78;100727.53;5017587;28;20303;-64
2022/06/16 08:29:50;;;;;;;9.00;3.17;;;;;;;25.46;41.80;100734.16;5022067;28;20392;-64
2022/06/16 08:32:22;;;;;;;7.03;2.80;;;;;;;25.54;41.57;100738.38;5021735;28;20239;-64
2022/06/16 08:34:50;;;;;;;6.78;2.72;;;;;;;25.62;41.19;100738.03;5022486;28;20212;-64
2022/06/16 08:37:19;;;;;;;13.05;3.40;;;;;;;25.64;41.30;100752.19;5020794;28;20651;-62
2022/06/16 08:39:46;;;;;;;6.80;2.83;;;;;;;25.67;41.25;100747.13;5023237;28;20299;-64
2022/06/16 08:42:22;;;;;;;7.65;3.22;;;;;;;25.75;40.82;100751.34;5024940;28;20861;-64
2022/06/16 08:45:00;;;;;;;8.02;2.95;;;;;;;25.81;40.43;100745.78;5019069;28;20302;-64
2022/06/16 08:47:37;;;;;;;5.15;2.80;;;;;;;25.86;40.41;100748.56;5019121;28;20205;-64
2022/06/16 08:50:22;;;;;;;6.97;3.15;;;;;;;25.89;40.25;100758.13;5021178;28;20266;-64
2022/06/16 08:53:00;;;;;;;5.95;3.10;;;;;;;25.97;40.22;100756.94;5015940;28;20391;-64
2022/06/16 08:55:35;;;;;;;6.97;3.17;;;;;;;25.96;40.12;100758.81;5022166;28;20216;-64
2022/06/16 08:58:11;;;;;;;7.30;2.97;;;;;;;26.01;40.34;100760.81;5020678;28;20229;-64
2022/06/16 09:00:46;;;;;;;5.00;2.72;;;;;;;26.09;40.66;100749.56;5024346;28;20209;-64
2022/06/16 09:03:28;;;;;;;3.97;2.80;;;;;;;26.11;40.60;100761.03;5020912;28;20686;-63
2022/06/16 09:06:01;;;;;;;7.43;2.90;;;;;;;26.18;40.26;100765.22;5020155;28;20255;-64
2022/06/16 09:08:53;;;;;;;6.40;2.80;;;;;;;26.21;40.04;100766.66;5021412;28;20632;-64
2022/06/16 09:11:32;;;;;;;8.88;3.25;;;;;;;26.29;40.09;100763.56;5017342;28;20209;-64
2022/06/16 09:15:10;;;;;;;5.32;2.85;;;;;;;26.31;39.73;100755.97;5023634;28;20283;-64
2022/06/16 09:17:23;;;;;;;7.70;3.45;;;;;;;26.28;40.42;100759.19;5019303;28;20291;-65
2022/06/16 09:20:01;;;;;;;8.27;3.25;;;;;;;26.40;39.60;100743.63;5019710;28;20255;-65
2022/06/16 09:22:43;;;;;;;5.93;3.22;;;;;;;26.59;39.63;100755.91;5025452;28;20247;-65
2022/06/16 09:25:34;;;;;;;6.72;3.08;;;;;;;26.69;38.91;100755.25;5028015;28;20251;-65
2022/06/16 09:28:09;;;;;;;7.38;2.80;;;;;;;26.89;39.18;100757.50;5028609;28;20295;-65
2022/06/16 09:30:40;;;;;;;9.60;3.08;;;;;;;27.04;38.91;100755.03;5025454;28;20252;-67
2022/06/16 09:33:16;;;;;;;8.32;3.20;;;;;;;27.23;38.75;100761.00;5022444;28;20205;-66
2022/06/16 09:35:48;;;;;;;8.13;3.15;;;;;;;27.23;37.43;100756.41;5024345;28;20569;-64
2022/06/16 09:38:32;;;;;;;6.43;2.72;;;;;;;27.45;36.45;100750.13;5025116;28;20200;-65
2022/06/16 09:41:05;;;;;;;4.50;2.83;;;;;;;27.45;37.09;100759.13;5019678;28;20621;-66
2022/06/16 09:43:38;;;;;;;6.70;3.10;;;;;;;27.60;36.62;100761.28;5019206;28;20775;-65
2022/06/16 09:46:18;;;;;;;5.57;2.75;;;;;;;27.70;37.16;100764.13;5023180;28;20205;-66
2022/06/16 09:48:53;;;;;;;7.50;3.05;;;;;;;27.77;36.48;100755.75;5024925;28;20229;-66
2022/06/16 09:51:28;;;;;;;10.05;3.33;;;;;;;27.87;35.20;100762.16;5021629;28;20696;-64
2022/06/16 09:54:02;;;;;;;8.02;3.53;;;;;;;27.86;34.43;100760.50;5019123;28;20319;-64
2022/06/16 09:56:41;;;;;;;7.25;3.63;;;;;;;27.96;34.71;100765.25;5020878;28;20206;-66
2022/06/16 09:59:13;;;;;;;5.28;2.50;;;;;;;28.01;34.08;100768.84;5021063;28;20315;-66
2022/06/16 10:01:47;;;;;;;10.80;3.08;;;;;;;28.08;34.48;100772.19;5019888;28;20264;-65
2022/06/16 10:04:16;;;;;;;6.60;3.40;;;;;;;28.16;34.11;100778.25;5021975;28;20228;-65
2022/06/16 10:06:57;;;;;;;9.15;3.20;;;;;;;28.25;34.28;100777.56;5022097;28;20216;-66
2022/06/16 10:09:33;;;;;;;13.10;3.17;;;;;;;28.34;33.35;100784.19;5028437;28;20623;-64
2022/06/16 10:12:08;;;;;;;7.82;3.05;;;;;;;28.42;34.05;100781.00;5029347;28;20228;-65
2022/06/16 10:14:47;;;;;;;11.45;4.00;;;;;;;28.45;33.20;100791.41;5029715;28;20266;-64
2022/06/16 10:17:18;;;;;;;5.88;2.90;;;;;;;28.53;33.25;100792.03;5029060;28;20849;-65
2022/06/16 10:19:48;;;;;;;6.55;2.55;;;;;;;28.51;32.91;100792.28;5029485;28;20239;-65
2022/06/16 10:22:18;;;;;;;7.55;2.58;;;;;;;28.68;33.81;100795.69;5023275;28;20204;-64
2022/06/16 10:24:51;;;;;;;5.78;2.55;;;;;;;28.70;33.30;100799.00;5015664;28;20240;-65
2022/06/16 10:27:21;;;;;;;4.93;2.55;;;;;;;28.77;32.98;100799.63;5020533;28;20736;-65
2022/06/16 10:29:54;;;;;;;9.73;2.97;;;;;;;28.89;32.94;100796.72;5021372;28;20235;-65
2022/06/16 10:32:38;;;;;;;8.45;2.83;;;;;;;28.94;32.83;100790.50;5019934;28;20212;-65
2022/06/16 10:35:11;;;;;;;5.78;3.10;;;;;;;29.04;32.34;100793.28;5015425;28;20203;-65
2022/06/16 10:37:42;;;;;;;6.75;3.10;;;;;;;29.07;33.41;100798.22;5017996;28;20208;-67
2022/06/16 10:40:14;;;;;;;9.13;2.80;;;;;;;29.14;32.92;100801.53;5014058;28;20205;-65
2022/06/16 10:42:47;;;;;;;7.75;2.78;;;;;;;29.16;33.21;100802.13;5017918;28;20592;-64
2022/06/16 10:45:21;;;;;;;8.55;3.72;;;;;;;29.24;32.43;100809.81;5020720;28;20241;-67
2022/06/16 10:47:52;;;;;;;5.40;3.20;;;;;;;29.31;31.71;100799.47;5019407;28;20208;-65
2022/06/16 10:50:26;;;;;;;5.07;2.97;;;;;;;29.32;31.83;100816.69;5011612;28;20209;-72
2022/06/16 10:53:02;;;;;;;7.57;3.20;;;;;;;29.35;31.83;100811.53;5009955;28;20210;-65
2022/06/16 10:55:42;;;;;;;9.65;5.05;;;;;;;29.41;31.60;100826.88;5016583;28;20204;-66
2022/06/16 10:58:18;;;;;;;7.35;3.10;;;;;;;29.54;30.80;100826.44;5020718;28;20207;-65
2022/06/16 11:01:02;;;;;;;8.38;3.72;;;;;;;29.60;31.43;100830.00;5022773;28;20594;-65
2022/06/16 11:03:35;;;;;;;5.22;2.63;;;;;;;29.64;30.91;100827.56;5009732;28;20225;-64
2022/06/16 11:06:07;;;;;;;9.93;2.63;;;;;;;29.72;31.47;100832.53;5004184;28;20247;-64
2022/06/16 11:08:37;;;;;;;7.00;2.90;;;;;;;29.79;30.13;100823.00;5001401;28;21131;-65
2022/06/16 11:11:20;;;;;;;6.63;2.80;;;;;;;29.86;30.42;100817.28;5013723;28;20214;-63
2022/06/16 11:13:53;;;;;;;10.38;3.10;;;;;;;29.83;30.59;100821.34;5013536;28;20687;-65
2022/06/16 11:16:28;;;;;;;6.30;2.70;;;;;;;29.92;31.22;100818.94;5025117;28;20290;-65
2022/06/16 11:18:59;;;;;;;6.30;3.30;;;;;;;29.96;31.29;100828.28;5026447;28;20243;-69
2022/06/16 11:21:31;;;;;;;7.00;2.92;;;;;;;29.98;30.27;100828.84;5018013;28;20205;-67
2022/06/16 11:24:02;;;;;;;7.20;2.50;;;;;;;30.00;31.10;100837.56;5026038;28;20233;-66
2022/06/16 11:26:33;;;;;;;7.18;3.00;;;;;;;30.00;30.43;100832.09;5029391;28;20575;-70
2022/06/16 11:29:17;;;;;;;9.07;2.72;;;;;;;30.03;30.24;100833.50;5021788;28;20626;-74
2022/06/16 11:31:47;;;;;;;5.13;2.88;;;;;;;30.14;30.12;100838.75;5015667;28;20256;-67
2022/06/16 11:34:18;;;;;;;6.35;2.28;;;;;;;30.23;29.95;100831.66;5009306;28;20206;-67
2022/06/16 11:37:18;;;;;;;4.88;2.72;;;;;;;30.35;29.55;100831.38;5012134;28;20584;-68
2022/06/16 11:40:00;;;;;;;8.93;2.30;;;;;;;30.43;27.88;100825.41;5017647;28;20295;-65
2022/06/16 11:42:45;;;;;;;6.47;2.30;;;;;;;30.43;27.96;100832.81;5022486;28;20733;-65
2022/06/16 11:45:23;;;;;;;5.53;2.05;;;;;;;30.44;25.58;100826.22;5024568;28;20270;-65
2022/06/16 11:47:59;;;;;;;6.07;2.20;;;;;;;30.48;27.49;100830.06;5022475;28;20299;-67
2022/06/16 11:50:37;;;;;;;6.18;1.95;;;;;;;30.44;27.88;100832.50;5021907;28;20208;-64
2022/06/16 11:53:20;;;;;;;3.97;2.35;;;;;;;30.52;28.30;100832.00;5020351;28;20350;-64
2022/06/16 11:55:53;;;;;;;8.00;2.72;;;;;;;30.52;27.34;100828.47;5028388;28;20205;-66
2022/06/16 11:58:59;;;;;;;6.10;2.00;;;;;;;30.57;26.19;100817.50;5025178;28;20212;-64
2022/06/16 12:01:31;;;;;;;4.82;2.10;;;;;;;30.56;26.70;100824.06;5021543;28;20209;-64
2022/06/16 12:04:34;;;;;;;5.13;2.38;;;;;;;30.62;26.93;100817.50;5015046;28;20237;-67
2022/06/16 12:07:19;;;;;;;3.17;1.92;;;;;;;30.59;25.88;100826.28;5023118;28;21607;-69